Time;durP1;ratioP1;P1;durP2;ratioP2;P2;SDS_P1;SDS_P2;PMS_P1;PMS_P2;Temp;Humidity;BMP_temperature;BMP_pressure;BME280_temperature;BME280_humidity;BME280_pressure;Samples;Min_cycle;Max_cycle;Signal;HPM_P1;HPM_P2
2024/01/16 00:00:58;;;;;;;20.80;4.20;;;;;;;0.29;89.63;98556.27;107833;1271;22576;-76
2024/01/16 00:03:50;;;;;;;18.00;3.90;;;;;;;0.27;89.90;98555.31;107861;1271;23043;-76
2024/01/16 00:06:43;;;;;;;12.70;2.80;;;;;;;0.26;90.16;98560.46;107988;1271;22552;-77
2024/01/16 00:09:36;;;;;;;12.70;3.10;;;;;;;0.23;90.27;98559.92;107895;1271;22647;-77
2024/01/16 00:12:27;;;;;;;10.10;2.70;;;;;;;0.23;90.64;98563.41;107954;1271;25396;-75
2024/01/16 00:15:18;;;;;;;17.00;4.30;;;;;;;0.22;90.53;98569.96;108010;1268;24364;-76
2024/01/16 00:18:10;;;;;;;15.50;3.80;;;;;;;0.23;90.78;98566.36;108002;1271;23646;-75
2024/01/16 00:21:03;;;;;;;12.20;3.30;;;;;;;0.22;90.91;98575.75;108038;1259;24371;-76
2024/01/16 00:23:54;;;;;;;7.70;2.60;;;;;;;0.21;91.09;98593.89;108062;1271;23396;-76
2024/01/16 00:26:46;;;;;;;13.00;2.40;;;;;;;0.21;91.25;98610.84;107979;1271;24655;-76
2024/01/16 00:29:36;;;;;;;8.70;1.70;;;;;;;0.14;93.53;98628.91;107986;1271;23264;-76
2024/01/16 00:32:27;;;;;;;4.50;0.80;;;;;;;-0.04;93.44;98633.60;108019;1271;23314;-76
2024/01/16 00:35:18;;;;;;;3.90;0.60;;;;;;;-0.17;93.07;98630.30;107783;1261;22803;-76
2024/01/16 00:38:09;;;;;;;2.60;0.50;;;;;;;-0.33;92.62;98628.32;107908;1271;22581;-76
2024/01/16 00:40:58;;;;;;;;;;;;;;;-0.49;92.51;98635.73;107899;1272;25377;-76
2024/01/16 00:43:49;;;;;;;3.90;0.50;;;;;;;-0.61;92.91;98637.65;107911;1271;25424;-76
2024/01/16 00:46:40;;;;;;;4.40;0.70;;;;;;;-0.72;92.85;98642.34;107754;1272;24171;-76
2024/01/16 00:49:31;;;;;;;2.10;0.60;;;;;;;-0.77;92.94;98656.50;107873;1271;22797;-76
2024/01/16 00:52:22;;;;;;;6.50;0.90;;;;;;;-0.84;93.27;98665.16;107872;1266;22531;-76
2024/01/16 00:55:11;;;;;;;;;;;;;;;-0.89;93.11;98668.77;107886;1271;23881;-76
2024/01/16 00:58:02;;;;;;;2.60;0.60;;;;;;;-0.92;93.24;98681.09;107966;1271;24117;-76
2024/01/16 01:00:53;;;;;;;11.90;0.90;;;;;;;-0.95;93.34;98688.21;108012;1271;22639;-77
2024/01/16 01:03:44;;;;;;;8.00;1.20;;;;;;;-0.97;93.46;98687.75;107924;1271;22703;-76
2024/01/16 01:06:38;;;;;;;5.20;0.80;;;;;;;-0.99;93.79;98691.79;107933;1271;23866;-76
2024/01/16 01:09:29;;;;;;;10.40;1.00;;;;;;;-1.01;93.50;98701.00;107943;1271;22744;-76
2024/01/16 01:12:20;;;;;;;6.90;0.90;;;;;;;-1.03;93.72;98706.55;107935;1271;25323;-76
2024/01/16 01:15:11;;;;;;;10.20;0.70;;;;;;;-1.05;93.68;98710.13;107900;1271;25551;-76
2024/01/16 01:18:03;;;;;;;4.00;0.80;;;;;;;-1.06;93.83;98718.60;107854;1271;22554;-76
2024/01/16 01:20:55;;;;;;;7.40;0.90;;;;;;;-1.04;93.54;98720.27;107904;1271;22639;-76
2024/01/16 01:23:46;;;;;;;6.70;1.00;;;;;;;-1.01;93.54;98729.10;108031;1271;27633;-76
2024/01/16 01:26:37;;;;;;;10.80;1.80;;;;;;;-1.00;93.64;98735.02;108005;1271;22534;-76
2024/01/16 01:29:28;;;;;;;7.00;1.40;;;;;;;-0.99;93.60;98746.57;107842;1271;22812;-76
2024/01/16 01:32:19;;;;;;;10.90;1.40;;;;;;;-0.96;93.49;98743.83;108025;1271;22584;-76
2024/01/16 01:35:12;;;;;;;10.00;1.10;;;;;;;-0.94;93.39;98749.64;108018;1271;25632;-77
2024/01/16 01:38:03;;;;;;;6.30;1.00;;;;;;;-0.92;93.42;98744.47;107790;1272;25310;-76
2024/01/16 01:40:54;;;;;;;7.10;1.10;;;;;;;-0.93;93.63;98745.67;107981;1272;22654;-77
2024/01/16 01:43:45;;;;;;;9.30;1.40;;;;;;;-0.96;93.42;98745.30;107813;1272;22732;-76
2024/01/16 01:46:37;;;;;;;4.00;1.00;;;;;;;-0.93;93.49;98753.02;107734;1272;22588;-77
2024/01/16 01:49:29;;;;;;;7.40;1.10;;;;;;;-0.92;93.41;98755.05;107810;1272;25585;-76
2024/01/16 01:52:20;;;;;;;8.90;1.10;;;;;;;-0.89;93.54;98763.64;107849;1272;22983;-76
2024/01/16 01:55:14;;;;;;;13.50;1.40;;;;;;;-0.88;93.55;98768.55;107843;1272;25416;-76
2024/01/16 01:58:06;;;;;;;4.90;1.00;;;;;;;-0.86;93.47;98778.66;107912;1272;25391;-76
2024/01/16 02:00:58;;;;;;;6.50;1.10;;;;;;;-0.81;93.39;98785.48;107860;1272;22635;-76
2024/01/16 02:03:50;;;;;;;7.50;1.10;;;;;;;-0.78;93.46;98783.96;108074;1271;28253;-76
2024/01/16 02:06:42;;;;;;;5.40;1.00;;;;;;;-0.75;93.47;98778.95;107922;1271;23229;-76
2024/01/16 02:09:33;;;;;;;10.20;1.20;;;;;;;-0.74;93.33;98777.02;108026;1271;23063;-77
2024/01/16 02:12:48;;;;;;;12.00;1.70;;;;;;;-0.73;93.34;98778.66;108037;1271;25500;-76
2024/01/16 02:15:41;;;;;;;8.60;1.20;;;;;;;-0.71;93.26;98787.52;108306;1265;25497;-77
2024/01/16 02:18:31;;;;;;;11.10;1.20;;;;;;;-0.70;93.17;98787.41;108301;1271;22567;-77
2024/01/16 02:21:26;;;;;;;7.60;2.20;;;;;;;-0.70;93.10;98793.34;108317;1271;22798;-77
2024/01/16 02:24:18;;;;;;;9.90;1.80;;;;;;;-0.71;92.88;98798.19;108145;1271;25189;-77
2024/01/16 02:27:09;;;;;;;6.40;1.40;;;;;;;-0.74;92.95;98802.02;108204;1271;22730;-77
2024/01/16 02:30:00;;;;;;;9.30;1.30;;;;;;;-0.75;92.94;98806.89;108192;1271;23231;-78
2024/01/16 02:32:51;;;;;;;13.70;1.80;;;;;;;-0.73;93.05;98816.63;108187;1271;27595;-77
2024/01/16 02:35:42;;;;;;;14.00;1.90;;;;;;;-0.72;93.10;98813.70;108186;1271;22625;-76
2024/01/16 02:38:31;;;;;;;;;;;;;;;-0.72;93.11;98816.08;108292;1271;23067;-76
2024/01/16 02:41:22;;;;;;;6.80;1.00;;;;;;;-0.72;93.05;98823.04;108039;1271;22663;-76
2024/01/16 02:44:13;;;;;;;6.50;1.50;;;;;;;-0.73;93.32;98826.74;108140;1271;25464;-77
2024/01/16 02:47:06;;;;;;;7.40;1.30;;;;;;;-0.73;93.29;98827.59;108057;1271;24238;-77
2024/01/16 02:49:58;;;;;;;7.10;1.30;;;;;;;-0.74;93.21;98833.66;108026;1272;23510;-76
2024/01/16 02:52:49;;;;;;;7.60;1.30;;;;;;;-0.74;93.28;98833.09;107930;1271;24327;-76
2024/01/16 02:55:39;;;;;;;9.90;1.40;;;;;;;-0.72;93.44;98842.77;108223;1271;22606;-77
2024/01/16 02:58:29;;;;;;;;;;;;;;;-0.72;93.53;98837.44;108054;1262;22513;-77
2024/01/16 03:01:20;;;;;;;14.70;4.50;;;;;;;-0.73;93.59;98843.17;108054;1272;22550;-77
2024/01/16 03:04:11;;;;;;;11.70;1.60;;;;;;;-0.73;93.76;98847.10;108036;1272;22570;-76
2024/01/16 03:07:02;;;;;;;14.10;1.60;;;;;;;-0.74;93.83;98852.59;108152;1272;25564;-77
2024/01/16 03:09:51;;;;;;;;;;;;;;;-0.74;93.95;98863.23;108266;1270;22537;-76
2024/01/16 03:12:42;;;;;;;9.00;1.50;;;;;;;-0.74;93.93;98862.86;108180;1271;22698;-77
2024/01/16 03:15:32;;;;;;;7.20;1.40;;;;;;;-0.76;93.94;98865.02;108129;1271;23214;-77
2024/01/16 03:18:23;;;;;;;9.30;1.60;;;;;;;-0.77;93.91;98868.52;108130;1271;22913;-77
2024/01/16 03:21:15;;;;;;;3.40;0.90;;;;;;;-0.78;93.84;98868.44;108126;1271;22569;-76
2024/01/16 03:24:07;;;;;;;10.20;1.30;;;;;;;-0.82;93.51;98878.59;108060;1266;22639;-76
2024/01/16 03:26:59;;;;;;;10.30;1.40;;;;;;;-0.87;93.44;98873.23;108197;1271;25584;-76
2024/01/16 03:29:50;;;;;;;9.00;1.20;;;;;;;-0.88;93.61;98878.36;108165;1271;22777;-76
2024/01/16 03:32:41;;;;;;;11.00;1.10;;;;;;;-0.92;93.50;98875.59;108131;1271;22703;-76
2024/01/16 03:35:32;;;;;;;8.10;1.40;;;;;;;-0.98;93.58;98870.98;108151;1266;22645;-76
2024/01/16 03:38:23;;;;;;;11.00;1.40;;;;;;;-1.01;93.77;98877.33;108033;1269;22626;-76
2024/01/16 03:41:14;;;;;;;8.20;1.70;;;;;;;-1.06;93.78;98884.82;108110;1272;22595;-77
2024/01/16 03:44:06;;;;;;;11.00;1.30;;;;;;;-1.09;94.07;98890.21;108035;1271;25753;-78
2024/01/16 03:46:57;;;;;;;9.70;1.40;;;;;;;-1.11;94.17;98873.48;107895;1272;22831;-76
2024/01/16 03:49:48;;;;;;;6.60;1.50;;;;;;;-1.13;94.27;98882.72;108058;1273;24417;-76
2024/01/16 03:52:39;;;;;;;14.20;2.20;;;;;;;-1.13;94.38;98878.52;107962;1273;25420;-76
2024/01/16 03:55:28;;;;;;;;;;;;;;;-1.13;94.34;98880.63;107790;1257;22542;-77
2024/01/16 03:58:19;;;;;;;4.80;1.00;;;;;;;-1.13;94.27;98882.99;108120;1262;22695;-79
2024/01/16 04:01:10;;;;;;;8.30;1.50;;;;;;;-1.13;94.41;98888.36;108036;1272;25648;-76
2024/01/16 04:04:02;;;;;;;5.10;1.20;;;;;;;-1.11;94.38;98898.11;108315;1272;22569;-77
2024/01/16 04:06:53;;;;;;;7.60;1.20;;;;;;;-1.09;94.42;98899.46;108057;1272;22685;-76
2024/01/16 04:09:45;;;;;;;6.00;1.00;;;;;;;-1.08;94.48;98905.79;108102;1272;25566;-76
2024/01/16 04:12:36;;;;;;;6.20;1.10;;;;;;;-1.08;94.36;98908.98;108064;1272;27824;-76
2024/01/16 04:15:26;;;;;;;;;;;;;;;-1.06;94.41;98915.42;108052;1269;22769;-76
2024/01/16 04:18:17;;;;;;;10.90;1.50;;;;;;;-1.06;94.36;98912.52;108082;1272;22556;-79
2024/01/16 04:21:08;;;;;;;4.10;0.90;;;;;;;-1.07;94.42;98904.25;107966;1272;22539;-77
2024/01/16 04:23:59;;;;;;;6.00;0.80;;;;;;;-1.08;94.14;98902.48;108039;1272;23895;-76
2024/01/16 04:26:50;;;;;;;4.90;0.90;;;;;;;-1.08;94.16;98904.84;107942;1272;22665;-76
2024/01/16 04:29:42;;;;;;;5.20;0.80;;;;;;;-1.10;94.13;98910.29;107856;1272;23355;-76
2024/01/16 04:32:33;;;;;;;10.10;1.10;;;;;;;-1.10;94.15;98913.27;107909;1272;24829;-76
2024/01/16 04:35:24;;;;;;;6.20;1.30;;;;;;;-1.09;94.20;98913.70;107828;1272;25310;-75
2024/01/16 04:38:15;;;;;;;6.50;1.50;;;;;;;-1.08;94.27;98921.51;107770;1272;22919;-76
2024/01/16 04:41:06;;;;;;;4.50;0.80;;;;;;;-1.09;94.34;98927.55;108060;1272;24235;-77
2024/01/16 04:43:57;;;;;;;4.70;0.70;;;;;;;-1.10;94.41;98929.39;107967;1273;24181;-76
2024/01/16 04:46:48;;;;;;;6.90;0.90;;;;;;;-1.12;94.37;98929.96;108069;1273;22545;-75
2024/01/16 04:49:37;;;;;;;;;;;;;;;-1.11;94.54;98926.75;107755;1271;25589;-75
2024/01/16 04:52:28;;;;;;;8.00;1.30;;;;;;;-1.12;94.69;98919.48;107835;1271;22577;-75
2024/01/16 04:55:17;;;;;;;;;;;;;;;-1.12;94.53;98913.31;107838;1271;22506;-75
2024/01/16 04:58:10;;;;;;;7.60;1.50;;;;;;;-1.12;94.48;98921.35;107755;1272;25319;-75
2024/01/16 05:01:01;;;;;;;7.20;1.10;;;;;;;-1.10;94.42;98930.71;107708;1269;22655;-75
2024/01/16 05:03:52;;;;;;;8.40;1.40;;;;;;;-1.11;94.39;98945.45;107715;1272;22813;-75
2024/01/16 05:06:43;;;;;;;9.40;1.10;;;;;;;-1.14;94.36;98955.22;107825;1272;22538;-76
2024/01/16 05:09:34;;;;;;;9.20;0.90;;;;;;;-1.17;94.62;98941.69;107620;1268;22756;-75
2024/01/16 05:12:25;;;;;;;13.00;1.80;;;;;;;-1.19;94.81;98951.66;107654;1255;22601;-75
2024/01/16 05:15:16;;;;;;;13.80;1.50;;;;;;;-1.19;95.01;98955.13;107707;1272;25290;-75
2024/01/16 05:18:08;;;;;;;12.40;2.20;;;;;;;-1.19;95.10;98951.20;107747;1272;22590;-75
2024/01/16 05:20:59;;;;;;;12.90;2.60;;;;;;;-1.17;95.10;98948.11;107619;1266;22646;-75
2024/01/16 05:23:50;;;;;;;17.00;2.60;;;;;;;-1.16;95.11;98955.03;107560;1272;22531;-75
2024/01/16 05:26:40;;;;;;;15.60;2.60;;;;;;;-1.16;95.12;98957.47;107698;1272;22530;-75
2024/01/16 05:29:30;;;;;;;;;;;;;;;-1.20;95.17;98963.39;107743;1272;25246;-75
2024/01/16 05:32:21;;;;;;;9.80;1.30;;;;;;;-1.24;95.32;98958.86;107707;1272;25321;-75
2024/01/16 05:35:12;;;;;;;8.00;1.50;;;;;;;-1.24;95.40;98969.56;107692;1272;22526;-75
2024/01/16 05:38:04;;;;;;;7.20;1.60;;;;;;;-1.21;95.55;98968.94;107684;1272;22643;-75
2024/01/16 05:40:55;;;;;;;13.20;2.30;;;;;;;-1.19;95.53;98966.88;107671;1273;26171;-79
2024/01/16 05:43:45;;;;;;;11.80;2.00;;;;;;;-1.14;95.63;98962.91;107732;1270;22762;-76
2024/01/16 05:46:37;;;;;;;10.70;2.50;;;;;;;-1.12;95.61;98968.94;107614;1273;22537;-76
2024/01/16 05:49:28;;;;;;;11.70;1.80;;;;;;;-1.10;95.54;98970.60;107853;1272;26584;-77
2024/01/16 05:52:17;;;;;;;;;;;;;;;-1.06;95.62;98970.99;107893;1272;24337;-76
2024/01/16 05:55:09;;;;;;;8.70;2.00;;;;;;;-1.05;95.70;98968.83;108036;1272;24264;-76
2024/01/16 05:58:00;;;;;;;9.30;1.90;;;;;;;-1.05;95.64;98988.39;108061;1271;22554;-77
2024/01/16 06:00:51;;;;;;;8.50;2.20;;;;;;;-1.07;95.63;98976.02;107963;1272;22791;-76
2024/01/16 06:03:42;;;;;;;20.80;6.90;;;;;;;-1.04;95.81;98963.66;107875;1272;26218;-77
2024/01/16 06:06:33;;;;;;;22.50;7.90;;;;;;;-1.07;95.78;98982.18;107806;1272;22739;-76
2024/01/16 06:09:23;;;;;;;12.20;2.70;;;;;;;-1.11;95.84;98991.98;107929;1272;22582;-76
2024/01/16 06:12:14;;;;;;;11.00;2.60;;;;;;;-1.11;95.96;98999.60;107852;1272;22639;-76
2024/01/16 06:15:06;;;;;;;10.30;2.50;;;;;;;-1.12;95.90;99004.30;107803;1272;25364;-76
2024/01/16 06:17:57;;;;;;;7.20;1.20;;;;;;;-1.12;95.98;99000.95;107854;1272;22653;-76
2024/01/16 06:20:48;;;;;;;6.00;0.90;;;;;;;-1.18;95.57;99019.41;107766;1273;22781;-76
2024/01/16 06:23:38;;;;;;;6.30;1.40;;;;;;;-1.22;95.67;99030.62;107813;1272;23063;-76
2024/01/16 06:26:29;;;;;;;9.30;1.70;;;;;;;-1.25;95.88;99036.56;107871;1272;22557;-76
2024/01/16 06:29:21;;;;;;;7.50;1.50;;;;;;;-1.28;95.70;99044.30;107957;1266;22577;-76
2024/01/16 06:32:12;;;;;;;7.30;1.00;;;;;;;-1.33;95.58;99041.38;107987;1267;22682;-75
2024/01/16 06:35:03;;;;;;;6.70;1.10;;;;;;;-1.36;95.44;99040.74;108099;1272;22616;-76
2024/01/16 06:37:54;;;;;;;6.00;1.10;;;;;;;-1.40;95.26;99047.33;107907;1273;22770;-75
2024/01/16 06:40:45;;;;;;;6.20;1.10;;;;;;;-1.40;95.25;99051.73;107965;1272;22695;-76
2024/01/16 06:43:36;;;;;;;9.20;1.20;;;;;;;-1.43;95.16;99053.59;107817;1273;23014;-77
2024/01/16 06:46:27;;;;;;;15.40;1.40;;;;;;;-1.45;95.11;99053.63;107864;1269;24205;-76
2024/01/16 06:49:18;;;;;;;7.90;1.40;;;;;;;-1.45;94.95;99051.77;108023;1270;22745;-76
2024/01/16 06:52:10;;;;;;;12.20;1.70;;;;;;;-1.40;95.17;99056.80;108011;1271;22534;-77
2024/01/16 06:55:01;;;;;;;5.50;1.20;;;;;;;-1.36;94.87;99066.16;110889;1267;22183;-77
2024/01/16 06:57:52;;;;;;;9.30;1.50;;;;;;;-1.34;94.53;99070.58;110979;1272;22158;-77
2024/01/16 07:00:43;;;;;;;6.80;1.20;;;;;;;-1.33;94.28;99077.29;110949;1269;22280;-76
2024/01/16 07:03:32;;;;;;;;;;;;;;;-1.35;94.01;99082.65;110940;1272;22344;-77
2024/01/16 07:06:23;;;;;;;12.50;1.60;;;;;;;-1.40;93.88;99092.46;110945;1270;22256;-77
2024/01/16 07:09:13;;;;;;;7.40;1.20;;;;;;;-1.44;93.76;99098.42;110945;1269;23100;-77
2024/01/16 07:12:03;;;;;;;;;;;;;;;-1.48;93.75;99100.55;110997;1269;22372;-77
2024/01/16 07:14:54;;;;;;;8.20;2.00;;;;;;;-1.52;93.87;99107.99;110900;1270;22145;-77
2024/01/16 07:17:43;;;;;;;;;;;;;;;-1.50;94.03;99111.29;111009;1272;23052;-77
2024/01/16 07:20:34;;;;;;;11.50;2.00;;;;;;;-1.49;93.96;99118.55;110870;1272;22165;-77
2024/01/16 07:23:24;;;;;;;13.70;3.10;;;;;;;-1.50;93.93;99125.52;110872;1265;22224;-77
2024/01/16 07:26:16;;;;;;;16.20;2.80;;;;;;;-1.53;93.71;99135.70;110875;1267;22331;-76
2024/01/16 07:29:07;;;;;;;11.90;2.60;;;;;;;-1.53;93.89;99139.77;111009;1271;22640;-78
2024/01/16 07:31:57;;;;;;;11.00;2.00;;;;;;;-1.55;93.84;99150.11;110759;1273;22572;-78
2024/01/16 07:34:48;;;;;;;11.50;2.50;;;;;;;-1.55;93.98;99160.12;110780;1273;22160;-76
2024/01/16 07:37:37;;;;;;;;;;;;;;;-1.53;94.02;99166.34;110841;1264;22207;-76
2024/01/16 07:40:28;;;;;;;12.40;2.30;;;;;;;-1.51;93.99;99168.20;110800;1272;22141;-77
2024/01/16 07:43:19;;;;;;;7.30;1.50;;;;;;;-1.49;94.04;99173.75;110910;1272;22973;-76
2024/01/16 07:46:09;;;;;;;8.70;1.30;;;;;;;-1.46;94.02;99182.09;110875;1272;23033;-77
2024/01/16 07:49:00;;;;;;;8.40;1.40;;;;;;;-1.44;94.18;99183.80;110888;1272;22903;-77
2024/01/16 07:51:51;;;;;;;14.20;1.60;;;;;;;-1.40;94.07;99190.77;110885;1272;22271;-78
2024/01/16 07:54:41;;;;;;;12.40;2.20;;;;;;;-1.42;93.89;99191.20;110985;1267;22161;-77
2024/01/16 07:57:30;;;;;;;;;;;;;;;-1.38;94.03;99191.59;110938;1272;22325;-78
2024/01/16 08:00:22;;;;;;;13.30;2.20;;;;;;;-1.34;94.04;99196.52;110972;1270;22222;-76
2024/01/16 08:03:14;;;;;;;10.40;2.10;;;;;;;-1.32;93.92;99200.77;111003;1269;22440;-77
2024/01/16 08:06:05;;;;;;;11.80;1.70;;;;;;;-1.27;94.17;99204.25;110985;1271;22802;-78
2024/01/16 08:08:56;;;;;;;9.70;2.60;;;;;;;-1.21;94.03;99205.77;110852;1267;22174;-76
2024/01/16 08:11:47;;;;;;;15.60;4.00;;;;;;;-1.17;93.98;99206.86;110938;1271;22272;-76
2024/01/16 08:14:38;;;;;;;16.90;3.30;;;;;;;-1.15;93.76;99210.48;111018;1269;22264;-77
2024/01/16 08:17:29;;;;;;;11.40;2.60;;;;;;;-1.16;93.60;99228.66;110881;1266;22322;-77
2024/01/16 08:20:20;;;;;;;15.00;2.60;;;;;;;-1.18;93.45;99239.34;110873;1265;22165;-78
2024/01/16 08:23:11;;;;;;;14.90;3.10;;;;;;;-1.19;93.47;99240.84;110997;1271;22381;-76
2024/01/16 08:26:00;;;;;;;;;;;;;;;-1.12;93.84;99245.40;111028;1271;22303;-77
2024/01/16 08:28:51;;;;;;;18.40;5.50;;;;;;;-1.05;93.85;99249.55;110757;1273;22383;-77
2024/01/16 08:31:42;;;;;;;21.50;6.20;;;;;;;-1.00;93.73;99256.89;110738;1273;22195;-77
2024/01/16 08:34:31;;;;;;;;;;;;;;;-1.01;93.52;99261.89;110896;1254;22307;-77
2024/01/16 08:37:22;;;;;;;19.80;6.10;;;;;;;-1.00;93.53;99268.92;110911;1272;22166;-76
2024/01/16 08:40:12;;;;;;;;;;;;;;;-1.04;93.24;99274.95;110897;1270;22475;-76
2024/01/16 08:43:03;;;;;;;14.40;3.80;;;;;;;-1.07;93.18;99272.84;110980;1269;22223;-77
2024/01/16 08:45:54;;;;;;;14.30;3.60;;;;;;;-1.11;93.08;99269.23;110858;1267;22236;-77
2024/01/16 08:48:44;;;;;;;10.90;2.30;;;;;;;-1.05;93.58;99273.25;110991;1269;23003;-77
2024/01/16 08:51:33;;;;;;;;;;;;;;;-0.96;93.65;99275.71;110982;1257;22375;-77
2024/01/16 08:54:25;;;;;;;12.50;2.30;;;;;;;-0.84;93.77;99279.63;110995;1264;22216;-77
2024/01/16 08:57:16;;;;;;;11.40;1.90;;;;;;;-0.78;93.34;99290.03;110971;1261;22177;-80
2024/01/16 09:00:09;;;;;;;10.90;2.20;;;;;;;-0.79;92.78;99286.38;110977;1271;22172;-76
2024/01/16 09:02:59;;;;;;;11.60;2.20;;;;;;;-0.80;92.84;99282.80;110945;1264;112261;-78
2024/01/16 09:05:50;;;;;;;11.90;2.40;;;;;;;-0.77;92.90;99286.96;110962;1271;22091;-78
2024/01/16 09:08:41;;;;;;;14.50;3.60;;;;;;;-0.75;92.95;99289.11;110989;1269;22278;-77
2024/01/16 09:11:33;;;;;;;12.30;3.00;;;;;;;-0.75;92.86;99289.05;111037;1268;22151;-78
2024/01/16 09:14:24;;;;;;;13.90;3.50;;;;;;;-0.75;92.74;99292.95;110900;1264;22237;-76
2024/01/16 09:17:13;;;;;;;;;;;;;;;-0.76;92.62;99296.04;111195;1255;22509;-81
2024/01/16 09:20:06;;;;;;;15.70;3.80;;;;;;;-0.74;92.90;99295.20;107874;1274;25505;-78
2024/01/16 09:22:57;;;;;;;16.60;3.00;;;;;;;-0.67;93.02;99287.62;107677;1270;24348;-75
2024/01/16 09:25:48;;;;;;;10.70;2.30;;;;;;;-0.62;92.96;99287.71;107424;1274;23647;-77
2024/01/16 09:28:40;;;;;;;11.60;2.40;;;;;;;-0.58;92.97;99297.74;107558;1274;22538;-75
2024/01/16 09:31:31;;;;;;;11.10;2.20;;;;;;;-0.61;92.46;99292.79;107526;1267;25651;-77
2024/01/16 09:34:22;;;;;;;14.50;2.40;;;;;;;-0.63;92.64;99302.70;107725;1274;24398;-75
2024/01/16 09:37:14;;;;;;;13.90;2.50;;;;;;;-0.63;92.72;99308.97;107740;1274;22767;-76
2024/01/16 09:40:07;;;;;;;17.30;4.30;;;;;;;-0.58;93.07;99304.31;107648;1271;22744;-76
2024/01/16 09:42:58;;;;;;;17.60;4.80;;;;;;;-0.48;93.13;99305.02;110662;1274;23060;-76
2024/01/16 09:45:50;;;;;;;14.20;4.00;;;;;;;-0.45;92.83;99308.70;110673;1262;22560;-77
2024/01/16 09:48:42;;;;;;;20.50;5.60;;;;;;;-0.44;92.80;99313.15;110678;1272;22308;-77
2024/01/16 09:51:33;;;;;;;21.20;6.80;;;;;;;-0.40;93.06;99318.21;110646;1271;22153;-78
2024/01/16 09:54:24;;;;;;;16.10;4.80;;;;;;;-0.34;92.74;99317.78;110703;1269;23113;-77
2024/01/16 09:57:16;;;;;;;20.60;5.90;;;;;;;-0.29;92.74;99318.44;110637;1274;22413;-77
2024/01/16 10:00:11;;;;;;;15.10;3.90;;;;;;;-0.26;92.62;99316.73;110724;1270;23052;-77
2024/01/16 10:03:04;;;;;;;12.40;3.50;;;;;;;-0.21;92.68;99327.23;110682;1271;22216;-77
2024/01/16 10:05:55;;;;;;;20.20;4.80;;;;;;;-0.22;92.52;99332.68;110660;1272;22117;-77
2024/01/16 10:08:47;;;;;;;16.00;3.20;;;;;;;-0.24;92.56;99340.80;110666;1274;22179;-80
2024/01/16 10:11:38;;;;;;;10.60;2.10;;;;;;;-0.23;92.27;99342.74;110687;1272;22156;-77
2024/01/16 10:14:30;;;;;;;9.30;1.60;;;;;;;-0.23;92.09;99340.94;110649;1266;22289;-76
2024/01/16 10:17:21;;;;;;;7.10;1.20;;;;;;;-0.21;92.01;99338.67;110669;1263;22173;-77
2024/01/16 10:20:14;;;;;;;7.70;1.10;;;;;;;-0.17;91.73;99345.82;110690;1255;22323;-77
2024/01/16 10:23:05;;;;;;;9.60;1.40;;;;;;;-0.18;91.67;99343.70;110688;1271;22224;-78
2024/01/16 10:26:09;;;;;;;8.90;1.50;;;;;;;-0.21;91.35;99348.16;110690;1274;22171;-77
2024/01/16 10:29:05;;;;;;;11.90;1.40;;;;;;;-0.30;90.86;99346.91;110646;1274;22142;-78
2024/01/16 10:31:56;;;;;;;8.70;1.50;;;;;;;-0.37;91.04;99348.31;110674;1274;22251;-77
2024/01/16 10:34:45;;;;;;;;;;;;;;;-0.38;91.37;99354.52;110672;1274;22412;-78
2024/01/16 10:37:45;;;;;;;9.30;1.60;;;;;;;-0.39;91.37;99358.60;110663;1274;22302;-78
2024/01/16 10:40:35;;;;;;;15.70;2.30;;;;;;;-0.40;91.25;99360.68;110646;1258;22622;-76
2024/01/16 10:43:26;;;;;;;12.60;2.10;;;;;;;-0.41;91.40;99359.77;110658;1251;22217;-78
2024/01/16 10:46:15;;;;;;;;;;;;;;;-0.45;91.34;99363.78;110684;1274;23234;-78
2024/01/16 10:49:07;;;;;;;9.30;1.50;;;;;;;-0.54;91.41;99359.58;110678;1270;23429;-77
2024/01/16 10:51:58;;;;;;;8.10;1.40;;;;;;;-0.58;91.41;99367.36;110675;1274;22138;-77
2024/01/16 10:54:50;;;;;;;8.30;2.00;;;;;;;-0.63;91.66;99372.17;110687;1274;24464;-77
2024/01/16 10:57:43;;;;;;;7.20;1.40;;;;;;;-0.62;92.09;99370.95;110683;1265;22138;-76
2024/01/16 11:00:39;;;;;;;8.40;2.00;;;;;;;-0.58;92.12;99367.04;110678;1266;22176;-76
2024/01/16 11:03:36;;;;;;;13.90;3.20;;;;;;;-0.52;92.27;99372.33;110681;1268;22166;-77
2024/01/16 11:06:27;;;;;;;29.20;8.60;;;;;;;-0.46;92.02;99376.42;110666;1272;22288;-76
2024/01/16 11:09:18;;;;;;;19.10;4.10;;;;;;;-0.39;92.20;99378.60;110652;1271;22130;-79
2024/01/16 11:12:16;;;;;;;10.20;1.70;;;;;;;-0.36;91.76;99377.91;110681;1270;22336;-76
2024/01/16 11:15:09;;;;;;;9.90;1.80;;;;;;;-0.42;91.69;99381.18;110696;1270;23014;-78
2024/01/16 11:18:02;;;;;;;7.00;1.20;;;;;;;-0.43;91.61;99382.13;110688;1274;22170;-76
2024/01/16 11:20:55;;;;;;;8.90;1.30;;;;;;;-0.44;91.63;99378.25;110660;1272;22162;-77
2024/01/16 11:23:47;;;;;;;9.90;1.50;;;;;;;-0.42;91.60;99379.54;110673;1274;22163;-78
2024/01/16 11:26:42;;;;;;;5.50;1.00;;;;;;;-0.50;91.07;99379.31;110658;1272;22185;-77
2024/01/16 11:29:40;;;;;;;10.20;1.30;;;;;;;-0.55;91.20;99381.33;110667;1272;22168;-78
2024/01/16 11:32:37;;;;;;;10.60;1.50;;;;;;;-0.60;91.15;99388.31;110697;1272;22136;-76
2024/01/16 11:35:36;;;;;;;9.50;1.60;;;;;;;-0.62;91.45;99393.91;110670;1272;22242;-76
2024/01/16 11:38:27;;;;;;;9.60;1.80;;;;;;;-0.60;91.58;99394.19;110634;1268;22468;-76
2024/01/16 11:41:51;;;;;;;10.40;1.60;;;;;;;-0.53;91.86;99390.81;110661;1267;22377;-77
2024/01/16 11:44:47;;;;;;;11.30;1.80;;;;;;;-0.44;91.70;99392.50;110630;1274;22164;-77
2024/01/16 11:47:39;;;;;;;10.60;2.20;;;;;;;-0.36;91.89;99394.11;110616;1271;22176;-76
2024/01/16 11:50:31;;;;;;;8.80;1.30;;;;;;;-0.30;91.51;99395.25;110698;1267;23055;-77
2024/01/16 11:53:39;;;;;;;16.10;2.20;;;;;;;-0.30;91.37;99397.05;110646;1272;22433;-77
2024/01/16 11:56:53;;;;;;;9.90;1.40;;;;;;;-0.28;91.56;99396.46;110645;1266;22973;-77
2024/01/16 11:59:59;;;;;;;13.00;2.10;;;;;;;-0.23;91.64;99399.80;110678;1272;22149;-76
2024/01/16 12:02:53;;;;;;;9.30;2.00;;;;;;;-0.23;91.54;99398.76;110692;1267;22937;-77
2024/01/16 12:05:44;;;;;;;11.50;1.50;;;;;;;-0.24;91.46;99397.94;110670;1271;23286;-77
2024/01/16 12:08:36;;;;;;;11.10;2.40;;;;;;;-0.22;91.79;99402.58;110702;1273;22104;-77
2024/01/16 12:11:27;;;;;;;9.10;1.90;;;;;;;-0.19;92.02;99408.84;110648;1269;22114;-77
2024/01/16 12:14:18;;;;;;;13.50;1.80;;;;;;;-0.13;92.11;99414.12;110693;1267;22204;-77
2024/01/16 12:17:15;;;;;;;14.90;2.20;;;;;;;-0.15;91.85;99415.11;110658;1268;22084;-78
2024/01/16 12:20:21;;;;;;;11.00;2.10;;;;;;;-0.14;92.13;99414.55;110646;1269;22277;-77
2024/01/16 12:23:11;;;;;;;15.50;2.80;;;;;;;-0.15;91.94;99420.37;110642;1275;23238;-79
2024/01/16 12:26:03;;;;;;;10.30;2.10;;;;;;;-0.24;91.64;99420.80;110642;1275;22151;-77
2024/01/16 12:28:55;;;;;;;12.60;2.00;;;;;;;-0.31;91.74;99425.83;110625;1275;22735;-76
2024/01/16 12:31:51;;;;;;;9.40;2.00;;;;;;;-0.37;91.79;99425.01;110670;1270;22102;-76
2024/01/16 12:34:49;;;;;;;8.00;1.80;;;;;;;-0.41;91.71;99426.59;110689;1275;22221;-78
2024/01/16 12:37:40;;;;;;;9.00;1.80;;;;;;;-0.45;91.82;99427.85;110619;1275;23185;-78
2024/01/16 12:40:31;;;;;;;7.80;1.70;;;;;;;-0.51;91.78;99431.13;110619;1275;22131;-76
2024/01/16 12:43:22;;;;;;;12.00;2.00;;;;;;;-0.56;91.92;99434.76;110633;1268;22269;-77
2024/01/16 12:46:15;;;;;;;8.60;2.00;;;;;;;-0.59;91.99;99437.24;110604;1268;22209;-77
2024/01/16 12:49:07;;;;;;;9.30;2.40;;;;;;;-0.60;92.26;99440.86;110675;1275;22086;-78
2024/01/16 12:52:18;;;;;;;8.00;1.60;;;;;;;-0.60;92.41;99442.59;110622;1275;22165;-77
2024/01/16 12:55:10;;;;;;;17.50;2.10;;;;;;;-0.61;92.43;99441.11;110620;1275;22185;-77
2024/01/16 12:58:20;;;;;;;10.60;2.00;;;;;;;-0.58;92.57;99439.73;110629;1273;22884;-77
2024/01/16 13:01:28;;;;;;;13.70;2.00;;;;;;;-0.53;92.50;99444.55;110658;1267;22921;-76
2024/01/16 13:04:21;;;;;;;10.90;2.20;;;;;;;-0.48;92.68;99450.27;110670;1271;22194;-76
2024/01/16 13:07:16;;;;;;;9.80;2.70;;;;;;;-0.46;92.58;99453.88;110637;1273;22323;-76
2024/01/16 13:10:15;;;;;;;13.50;2.60;;;;;;;-0.46;92.50;99461.96;110600;1272;22296;-76
2024/01/16 13:13:17;;;;;;;11.30;2.20;;;;;;;-0.47;92.49;99462.20;110595;1275;22251;-76
2024/01/16 13:16:08;;;;;;;9.60;2.00;;;;;;;-0.46;92.68;99451.45;110596;1275;22119;-77
2024/01/16 13:19:08;;;;;;;14.10;2.70;;;;;;;-0.45;92.61;99453.24;110644;1273;23023;-76
2024/01/16 13:21:59;;;;;;;15.40;3.80;;;;;;;-0.47;92.43;99451.10;110657;1270;22196;-75